Time;durP1;ratioP1;P1;durP2;ratioP2;P2;SDS_P1;SDS_P2;PMS_P1;PMS_P2;Temp;Humidity;BMP_temperature;BMP_pressure;BME280_temperature;BME280_humidity;BME280_pressure;Samples;Min_cycle;Max_cycle;Signal;HPM_P1;HPM_P2
2021/07/02 00:01:43;;;;;;;;;;;;;;;15.07;100.00;99413.09;5090385;28;19958;-78
2021/07/02 00:04:22;;;;;;;;;;;;;;;15.07;100.00;99415.16;5111162;27;19912;-78
2021/07/02 00:07:02;;;;;;;;;;;;;;;15.17;100.00;99417.66;5090707;28;19916;-78
2021/07/02 00:09:40;;;;;;;;;;;;;;;15.10;100.00;99403.00;5111158;27;19912;-77
2021/07/02 00:12:19;;;;;;;;;;;;;;;14.94;100.00;99401.03;5090764;28;19913;-78
2021/07/02 00:14:59;;;;;;;;;;;;;;;15.01;100.00;99400.81;5111247;27;19916;-78
2021/07/02 00:17:38;;;;;;;;;;;;;;;15.02;100.00;99391.16;5110630;27;20313;-78
2021/07/02 00:20:16;;;;;;;;;;;;;;;15.02;100.00;99391.16;5110787;27;19938;-78
2021/07/02 00:22:55;;;;;;;;;;;;;;;15.05;100.00;99390.25;5050065;28;19917;-79
2021/07/02 00:25:46;;;;;;;;;;;;;;;15.03;100.00;99395.53;5110145;27;19938;-80
2021/07/02 00:28:24;;;;;;;;;;;;;;;14.94;100.00;99392.59;5110660;27;19969;-78
2021/07/02 00:31:04;;;;;;;;;;;;;;;14.98;100.00;99401.72;5110204;27;19942;-78
2021/07/02 00:33:42;;;;;;;;;;;;;;;14.97;100.00;99405.75;5111224;27;20359;-78
2021/07/02 00:36:22;;;;;;;;;;;;;;;14.97;100.00;99400.13;5090840;28;19958;-78
2021/07/02 00:39:00;;;;;;;;;;;;;;;14.98;100.00;99401.72;5111336;27;19912;-78
2021/07/02 00:41:50;;;;;;;;;;;;;;;14.91;100.00;99395.50;5041159;27;2007368;-78
2021/07/02 00:44:38;;;;;;;;;;;;;;;14.97;100.00;99399.34;5090496;28;19966;-78
2021/07/02 00:47:18;;;;;;;;;;;;;;;14.88;100.00;99408.44;5090817;28;19912;-78
2021/07/02 00:49:59;;;;;;;;;;;;;;;14.90;100.00;99411.59;5111184;27;19912;-78
2021/07/02 00:52:38;;;;;;;;;;;;;;;14.93;100.00;99412.72;5140437;27;19916;-78
2021/07/02 00:55:17;;;;;;;;;;;;;;;14.88;100.00;99408.44;5111199;27;19912;-78
2021/07/02 00:57:56;;;;;;;;;;;;;;;14.89;100.00;99420.50;5091041;28;19958;-78
2021/07/02 01:00:35;;;;;;;;;;;;;;;14.85;100.00;99425.41;5111143;27;19916;-78
2021/07/02 01:03:12;;;;;;;;;;;;;;;14.83;100.00;99422.25;5064094;27;2082994;-78
2021/07/02 01:05:50;;;;;;;;;;;;;;;14.79;100.00;99424.34;5111392;27;19912;-78
2021/07/02 01:08:28;;;;;;;;;;;;;;;14.64;100.00;99420.34;5111219;27;19912;-78
2021/07/02 01:11:09;;;;;;;;;;;;;;;14.58;100.00;99433.38;5111406;27;20321;-78
2021/07/02 01:13:50;;;;;;;;;;;;;;;14.38;100.00;99437.09;5090616;28;19966;-78
2021/07/02 01:16:29;;;;;;;;;;;;;;;14.38;100.00;99447.53;5111409;27;20317;-79
2021/07/02 01:19:13;;;;;;;;;;;;;;;14.29;100.00;99455.78;5090751;28;19943;-78
2021/07/02 01:21:55;;;;;;;;;;;;;;;14.17;100.00;99453.66;5091049;28;19912;-78
2021/07/02 01:24:40;;;;;;;;;;;;;;;14.05;100.00;99463.56;5090715;28;20306;-78
2021/07/02 01:27:07;;;;;;;;;;;;;;;14.15;100.00;99467.34;5073309;28;19924;-78
2021/07/02 01:29:47;;;;;;;;;;;;;;;14.28;100.00;99482.34;5105198;27;20383;-78
2021/07/02 01:32:27;;;;;;;;;;;;;;;14.36;100.00;99481.72;5090892;28;19939;-78
2021/07/02 01:35:07;;;;;;;;;;;;;;;14.40;100.00;99484.44;5090695;28;19912;-77
2021/07/02 01:37:47;;;;;;;;;;;;;;;14.37;100.00;99482.50;5090585;28;19939;-78
2021/07/02 01:40:26;;;;;;;;;;;;;;;14.27;100.00;99487.16;5111280;27;19938;-78
2021/07/02 01:43:06;;;;;;;;;;;;;;;14.35;100.00;99487.78;5110894;27;20321;-78
2021/07/02 01:45:49;;;;;;;;;;;;;;;14.41;100.00;99497.25;5111311;27;19938;-78
2021/07/02 01:48:31;;;;;;;;;;;;;;;14.39;100.00;99491.28;5090571;28;20356;-78
2021/07/02 01:51:10;;;;;;;;;;;;;;;14.40;100.00;99490.84;5111272;27;19912;-78
2021/07/02 01:54:02;;;;;;;;;;;;;;;14.38;100.00;99484.88;5111116;27;19912;-80
2021/07/02 01:56:47;;;;;;;;;;;;;;;14.36;100.00;99483.72;5090451;28;19939;-78
2021/07/02 01:59:30;;;;;;;;;;;;;;;14.39;100.00;99478.03;5090924;28;19920;-78
2021/07/02 02:02:13;;;;;;;;;;;;;;;14.42;100.00;99476.34;5090988;28;19916;-78
2021/07/02 02:05:04;;;;;;;;;;;;;;;14.41;100.00;99478.38;5111091;27;19912;-78
2021/07/02 02:07:44;;;;;;;;;;;;;;;14.44;100.00;99468.28;5090838;28;19912;-78
2021/07/02 02:10:24;;;;;;;;;;;;;;;14.41;100.00;99466.34;5090888;28;19913;-78
2021/07/02 02:13:04;;;;;;;;;;;;;;;14.51;100.00;99470.88;5070647;28;19917;-78
2021/07/02 02:15:43;;;;;;;;;;;;;;;14.56;100.00;99469.56;5111226;27;19938;-78
2021/07/02 02:18:26;;;;;;;;;;;;;;;14.76;100.00;99465.44;5090891;28;19966;-78
2021/07/02 02:21:18;;;;;;;;;;;;;;;14.68;100.00;99461.22;5111172;27;19912;-78
2021/07/02 02:23:58;;;;;;;;;;;;;;;14.70;100.00;99464.38;5090882;28;19935;-78
2021/07/02 02:26:38;;;;;;;;;;;;;;;14.80;100.00;99446.44;5090759;28;20318;-78
2021/07/02 02:29:17;;;;;;;;;;;;;;;14.80;100.00;99445.66;5111280;27;19912;-80
2021/07/02 02:32:07;;;;;;;;;;;;;;;14.81;100.00;99448.03;5111305;27;19912;-80
2021/07/02 02:34:47;;;;;;;;;;;;;;;14.84;100.00;99441.50;5111156;27;19912;-78
2021/07/02 02:37:25;;;;;;;;;;;;;;;14.85;100.00;99442.28;5111163;27;19916;-80
2021/07/02 02:40:05;;;;;;;;;;;;;;;14.77;100.00;99441.69;5090979;28;19951;-80
2021/07/02 02:42:43;;;;;;;;;;;;;;;14.77;100.00;99441.69;5111204;27;19916;-78
2021/07/02 02:45:23;;;;;;;;;;;;;;;14.73;100.00;99438.19;5111304;27;19920;-78
2021/07/02 02:48:03;;;;;;;;;;;;;;;14.61;100.00;99433.28;5090719;28;19916;-78
2021/07/02 02:50:43;;;;;;;;;;;;;;;14.51;100.00;99444.81;5090885;28;19966;-78
2021/07/02 02:53:23;;;;;;;;;;;;;;;14.57;100.00;99451.47;5113514;27;20437;-78
2021/07/02 02:56:14;;;;;;;;;;;;;;;14.48;100.00;99454.91;5111111;27;20363;-78
2021/07/02 02:58:54;;;;;;;;;;;;;;;14.48;100.00;99457.72;5090820;28;20069;-78
2021/07/02 03:01:34;;;;;;;;;;;;;;;14.51;100.00;99456.84;5090814;28;19917;-78
2021/07/02 03:04:27;;;;;;;;;;;;;;;14.56;100.00;99464.75;5090906;28;19917;-78
2021/07/02 03:07:07;;;;;;;;;;;;;;;14.58;100.00;99461.50;5090792;28;19966;-78
2021/07/02 03:09:48;;;;;;;;;;;;;;;14.60;100.00;99459.03;5111134;27;20416;-78
2021/07/02 03:12:28;;;;;;;;;;;;;;;14.58;100.00;99462.28;5089176;28;19967;-78
2021/07/02 03:15:56;;;;;;;;;;;;;;;14.53;100.00;99454.38;5105606;27;19938;-78
2021/07/02 03:18:38;;;;;;;;;;;;;;;14.57;100.00;99462.72;5090276;28;19943;-78
2021/07/02 03:21:19;;;;;;;;;;;;;;;14.56;100.00;99461.94;5110852;27;19938;-78
2021/07/02 03:23:55;;;;;;;;;;;;;;;14.59;100.00;99463.88;5041244;27;2000253;-78
2021/07/02 03:26:34;;;;;;;;;;;;;;;14.40;100.00;99450.72;5090722;28;19916;-78
2021/07/02 03:29:14;;;;;;;;;;;;;;;14.27;100.00;99461.84;5090739;28;19939;-78
2021/07/02 03:31:54;;;;;;;;;;;;;;;14.14;100.00;99460.16;5090847;28;19966;-78
2021/07/02 03:34:48;;;;;;;;;;;;;;;13.89;100.00;99469.16;5110890;27;20435;-80
2021/07/02 03:37:33;;;;;;;;;;;;;;;13.81;100.00;99483.81;5090731;28;20241;-80
2021/07/02 03:40:16;;;;;;;;;;;;;;;13.73;100.00;99485.19;5090793;28;19939;-78
2021/07/02 03:43:03;;;;;;;;;;;;;;;13.69;100.00;99495.72;5090589;28;19942;-78
2021/07/02 03:45:42;;;;;;;;;;;;;;;13.75;100.00;99502.41;5090874;28;19916;-78
2021/07/02 03:48:22;;;;;;;;;;;;;;;13.74;100.00;99503.59;5090415;28;20399;-78
2021/07/02 03:51:03;;;;;;;;;;;;;;;13.73;100.00;99510.44;5111238;27;19973;-78
2021/07/02 03:53:43;;;;;;;;;;;;;;;13.70;100.00;99511.31;5090662;28;19917;-78
2021/07/02 03:56:36;;;;;;;;;;;;;;;13.83;100.00;99524.25;5090608;28;19923;-78
2021/07/02 03:59:18;;;;;;;;;;;;;;;13.83;100.00;99520.66;5090761;28;20333;-78
2021/07/02 04:01:56;;;;;;;;;;;;;;;13.97;100.00;99520.34;5090720;28;19913;-78
2021/07/02 04:04:37;;;;;;;;;;;;;;;13.99;100.00;99526.34;5090718;28;19939;-78
2021/07/02 04:07:15;;;;;;;;;;;;;;;13.97;100.00;99521.16;5111086;27;19916;-78
2021/07/02 04:09:54;;;;;;;;;;;;;;;13.93;100.00;99516.84;5090646;28;19912;-77
2021/07/02 04:12:34;;;;;;;;;;;;;;;13.88;100.00;99520.97;5090767;28;19913;-78
2021/07/02 04:15:13;;;;;;;;;;;;;;;13.97;100.00;99523.16;5111005;27;19912;-78
2021/07/02 04:18:18;;;;;;;;;;;;;;;13.97;100.00;99511.91;5090830;28;19958;-78
2021/07/02 04:20:57;;;;;;;;;;;;;;;14.00;100.00;99511.06;5090914;28;20326;-78
2021/07/02 04:23:37;;;;;;;;;;;;;;;14.01;100.00;99516.22;5090399;28;19943;-77
2021/07/02 04:26:17;;;;;;;;;;;;;;;14.11;100.00;99520.03;5090903;28;19978;-80
2021/07/02 04:28:56;;;;;;;;;;;;;;;14.09;100.00;99514.06;5111163;27;20491;-77
2021/07/02 04:31:36;;;;;;;;;;;;;;;14.06;100.00;99512.13;5090781;28;20344;-77
2021/07/02 04:34:14;;;;;;;;;;;;;;;14.06;100.00;99520.53;5111245;27;19912;-80
2021/07/02 04:36:53;;;;;;;;;;;;;;;14.03;100.00;99524.22;5070616;28;19917;-80
2021/07/02 04:39:32;;;;;;;;;;;;;;;13.93;100.00;99516.84;5111085;27;19965;-80
2021/07/02 04:42:11;;;;;;;;;;;;;;;13.94;100.00;99529.66;5118103;27;19916;-77
2021/07/02 04:44:48;;;;;;;;;;;;;;;13.91;100.00;99536.94;5041973;27;1998250;-78
2021/07/02 04:47:27;;;;;;;;;;;;;;;14.01;100.00;99533.09;5090696;28;19912;-77
2021/07/02 04:50:09;;;;;;;;;;;;;;;14.04;100.00;99539.88;5090879;28;19982;-80
2021/07/02 04:52:48;;;;;;;;;;;;;;;14.12;100.00;99542.09;5110975;27;20597;-80
2021/07/02 04:55:27;;;;;;;;;;;;;;;14.16;100.00;99545.59;5111339;27;20317;-78
2021/07/02 04:58:20;;;;;;;;;;;;;;;14.18;100.00;99545.16;5090913;28;19912;-78
2021/07/02 05:00:59;;;;;;;;;;;;;;;14.15;100.00;99543.22;5111027;27;19912;-78
2021/07/02 05:03:38;;;;;;;;;;;;;;;14.18;100.00;99545.16;5152415;27;19915;-78
2021/07/02 05:06:18;;;;;;;;;;;;;;;14.20;100.00;99551.16;5110902;27;19965;-78
2021/07/02 05:08:57;;;;;;;;;;;;;;;14.31;100.00;99549.69;5111157;27;20440;-78
2021/07/02 05:11:35;;;;;;;;;;;;;;;14.33;100.00;99549.25;5111155;27;20333;-78
2021/07/02 05:14:25;;;;;;;;;;;;;;;14.31;100.00;99543.28;5131888;27;20251;-78
2021/07/02 05:17:05;;;;;;;;;;;;;;;14.07;100.00;99534.16;5090871;28;19939;-78
2021/07/02 05:19:45;;;;;;;;;;;;;;;14.16;100.00;99539.97;5090702;28;19924;-78
2021/07/02 05:22:25;;;;;;;;;;;;;;;14.27;100.00;99548.19;5090607;28;19916;-78
2021/07/02 05:25:08;;;;;;;;;;;;;;;14.29;100.00;99545.75;5090873;28;19978;-78
2021/07/02 05:27:48;;;;;;;;;;;;;;;14.33;100.00;99552.06;5091037;28;20323;-78
2021/07/02 05:30:27;;;;;;;;;;;;;;;14.40;100.00;99549.88;5111052;27;19916;-78
2021/07/02 05:33:06;;;;;;;;;;;;;;;14.56;100.00;99548.31;5143647;27;19915;-78
2021/07/02 05:35:45;;;;;;;;;;;;;;;14.67;100.00;99552.47;5111080;27;19965;-78
2021/07/02 05:38:24;;;;;;;;;;;;;;;14.72;100.00;99549.13;5090922;28;19912;-78
2021/07/02 05:41:04;;;;;;;;;;;;;;;14.82;100.00;99553.69;5090794;28;19913;-78
2021/07/02 05:43:48;;;;;;;;;;;;;;;14.87;100.00;99550.34;5050730;28;19917;-78
2021/07/02 05:46:29;;;;;;;;;;;;;;;14.94;100.00;99550.16;5090700;28;20404;-78
2021/07/02 05:49:08;;;;;;;;;;;;;;;14.91;100.00;99542.59;5090543;28;19939;-78
2021/07/02 05:51:48;;;;;;;;;;;;;;;15.01;100.00;99538.69;5090926;28;20325;-78
2021/07/02 05:54:39;;;;;;;;;;;;;;;15.09;100.00;99537.28;5090789;28;20325;-78
2021/07/02 05:57:17;;;;;;;;;;;;;;;15.22;100.00;99535.31;5111256;27;19912;-78
2021/07/02 05:59:56;;;;;;;;;;;;;;;15.23;100.00;99533.31;5090799;28;19912;-78
2021/07/02 06:02:35;;;;;;;;;;;;;;;15.31;100.00;99507.31;5090943;28;19962;-78
2021/07/02 06:05:16;;;;;;;;;;;;;;;15.34;100.00;99502.84;5090776;28;19912;-78
2021/07/02 06:07:55;;;;;;;;;;;;;;;15.33;100.00;99485.16;5090652;28;19917;-78
2021/07/02 06:10:35;;;;;;;;;;;;;;;15.43;100.00;99477.66;5090887;28;19920;-78
2021/07/02 06:13:15;;;;;;;;;;;;;;;15.46;100.00;99460.69;5090632;28;19974;-77
2021/07/02 06:15:54;;;;;;;;;;;;;;;15.46;100.00;99448.63;5111204;27;19916;-78
2021/07/02 06:18:33;;;;;;;;;;;;;;;15.42;100.00;99442.31;5050129;28;19986;-78
2021/07/02 06:21:12;;;;;;;;;;;;;;;15.50;100.00;99427.56;5111031;27;19938;-78
2021/07/02 06:23:53;;;;;;;;;;;;;;;15.47;100.00;99419.22;5090518;28;19916;-78
2021/07/02 06:26:32;;;;;;;;;;;;;;;15.62;100.00;99407.06;5090797;28;20318;-77
2021/07/02 06:29:12;;;;;;;;;;;;;;;15.63;100.00;99394.56;5090595;28;19939;-77
2021/07/02 06:31:52;;;;;;;;;;;;;;;15.75;100.00;99382.50;5152317;27;19926;-77
2021/07/02 06:34:31;;;;;;;;;;;;;;;15.50;100.00;99376.88;5110853;27;20371;-76
2021/07/02 06:37:10;;;;;;;;;;;;;;;15.74;100.00;99375.31;5130539;27;19916;-76
2021/07/02 06:39:49;;;;;;;;;;;;;;;15.93;100.00;99360.19;5110034;27;19934;-76
2021/07/02 06:42:28;;;;;;;;;;;;;;;16.01;100.00;99355.88;5083905;28;19920;-76
2021/07/02 06:45:07;;;;;;;;;;;;;;;15.99;100.00;99335.81;5103405;27;19916;-76
2021/07/02 06:47:55;;;;;;;;;;;;;;;16.43;100.00;99327.50;5083829;28;19939;-76
2021/07/02 06:50:34;;;;;;;;;;;;;;;16.29;100.00;99303.41;5099970;27;19938;-76
2021/07/02 06:53:15;;;;;;;;;;;;;;;16.53;100.00;99290.47;5107406;27;19916;-76
2021/07/02 06:55:53;;;;;;;;;;;;;;;16.87;100.00;99267.84;5044505;28;19987;-76
2021/07/02 06:58:33;;;;;;;;;;;;;;;17.05;100.00;99250.22;5088262;28;19913;-76
2021/07/02 07:01:13;;;;;;;;;;;;;;;17.24;100.00;99237.75;5061600;28;19917;-76
2021/07/02 07:03:53;;;;;;;;;;;;;;;17.33;100.00;99226.47;5071042;28;19939;-76
2021/07/02 07:06:32;;;;;;;;;;;;;;;17.38;100.00;99204.09;5090552;28;19917;-76
2021/07/02 07:09:11;;;;;;;;;;;;;;;17.35;100.00;99192.94;5083690;28;19982;-76
2021/07/02 07:11:50;;;;;;;;;;;;;;;17.27;100.00;99174.69;5100330;27;20428;-76
2021/07/02 07:14:30;;;;;;;;;;;;;;;17.14;100.00;99169.19;5081953;28;20307;-76
2021/07/02 07:17:11;;;;;;;;;;;;;;;17.02;100.00;99160.81;5098652;27;19912;-76
2021/07/02 07:19:51;;;;;;;;;;;;;;;16.32;100.00;99143.78;5081073;28;19944;-76
2021/07/02 07:22:31;;;;;;;;;;;;;;;16.45;100.00;99144.53;5081123;28;20344;-75
2021/07/02 07:25:09;;;;;;;;;;;;;;;16.63;100.00;99147.47;5111211;27;20326;-75
2021/07/02 07:27:48;;;;;;;;;;;;;;;16.71;100.00;99140.28;5051293;28;19917;-76
2021/07/02 07:30:27;;;;;;;;;;;;;;;17.12;100.00;99146.25;5110934;27;19912;-76
2021/07/02 07:33:18;;;;;;;;;;;;;;;16.23;100.00;99124.78;5111168;27;20325;-75
2021/07/02 07:35:57;;;;;;;;;;;;;;;16.34;100.00;99124.38;5131711;27;19912;-75
2021/07/02 07:38:35;;;;;;;;;;;;;;;16.08;100.00;99124.53;5111302;27;19916;-75
2021/07/02 07:41:14;;;;;;;;;;;;;;;16.03;100.00;99125.13;5090486;28;20448;-75
2021/07/02 07:43:53;;;;;;;;;;;;;;;15.95;100.00;99128.66;5111261;27;19937;-75
2021/07/02 07:46:32;;;;;;;;;;;;;;;16.02;100.00;99132.00;5124321;27;19916;-76
2021/07/02 07:49:12;;;;;;;;;;;;;;;16.49;100.00;99137.53;5110890;27;19920;-76
2021/07/02 07:54:33;;;;;;;;;;;;;;;16.19;100.00;99130.56;5070628;28;20302;-76
2021/07/02 07:57:12;;;;;;;;;;;;;;;16.07;100.00;99139.06;5108498;27;19937;-76
2021/07/02 07:59:51;;;;;;;;;;;;;;;16.13;100.00;99134.41;5132374;27;19915;-76
2021/07/02 08:02:30;;;;;;;;;;;;;;;16.34;100.00;99136.47;5097597;27;19974;-76
2021/07/02 08:05:09;;;;;;;;;;;;;;;16.44;100.00;99137.31;5089158;28;19924;-76
2021/07/02 08:07:48;;;;;;;;;;;;;;;16.17;100.00;99135.88;5129758;27;19920;-76
2021/07/02 08:10:27;;;;;;;;;;;;;;;16.18;100.00;99129.00;5090112;28;19912;-76
2021/07/02 08:13:06;;;;;;;;;;;;;;;16.89;100.00;99137.56;5110617;27;19912;-76
2021/07/02 08:15:45;;;;;;;;;;;;;;;17.47;100.00;99136.34;5086405;28;19966;-76
2021/07/02 08:18:24;;;;;;;;;;;;;;;18.09;100.00;99133.22;5110542;27;19912;-76
2021/07/02 08:21:03;;;;;;;;;;;;;;;18.70;100.00;99130.00;5085218;28;20351;-76
2021/07/02 08:23:43;;;;;;;;;;;;;;;19.02;100.00;99113.00;5090283;28;19916;-75
2021/07/02 08:26:24;;;;;;;;;;;;;;;20.07;100.00;99103.19;5152030;27;19975;-76
2021/07/02 08:31:53;;;;;;;;;;;;;;;19.66;100.00;99085.09;5090725;28;19938;-76
2021/07/02 08:34:32;;;;;;;;;;;;;;;21.08;100.00;99080.47;5090671;28;19942;-76
2021/07/02 08:37:12;;;;;;;;;;;;;;;20.97;100.00;99079.53;5111001;27;19981;-75
2021/07/02 08:39:51;;;;;;;;;;;;;;;21.05;100.00;99075.00;5110781;27;20428;-76
2021/07/02 08:42:29;;;;;;;;;;;;;;;21.11;100.00;99061.66;5086022;27;19966;-76
2021/07/02 08:45:07;;;;;;;;;;;;;;;21.42;100.00;99058.97;5067156;27;1999069;-74
2021/07/02 08:47:44;;;;;;;;;;;;;;;21.05;100.00;99046.59;5061837;27;2012936;-74
2021/07/02 08:50:35;;;;;;;;;;;;;;;21.12;100.00;99049.81;5110710;27;19911;-74
2021/07/02 08:53:14;;;;;;;;;;;;;;;21.78;100.00;99051.97;5076295;28;19944;-74
2021/07/02 08:56:18;;;;;;;;;;;;;;;21.03;100.00;99047.09;5099348;27;19912;-74
2021/07/02 08:58:57;;;;;;;;;;;;;;;19.56;100.00;99047.56;5131480;27;19915;-74
2021/07/02 09:01:37;;;;;;;;;;;;;;;19.98;100.00;99043.72;5097906;27;19957;-75
2021/07/02 09:04:18;;;;;;;;;;;;;;;20.27;100.00;99043.75;5080234;28;20364;-75
2021/07/02 09:07:00;;;;;;;;;;;;;;;20.08;100.00;99036.69;5089357;28;19928;-76
2021/07/02 09:09:55;;;;;;;;;;;;;;;19.23;100.00;99038.34;5090195;28;19913;-76
2021/07/02 09:12:39;;;;;;;;;;;;;;;18.83;100.00;99042.81;5082109;28;19917;-76
2021/07/02 09:15:18;;;;;;;;;;;;;;;17.88;100.00;99038.88;5097236;27;20383;-76
2021/07/02 09:17:58;;;;;;;;;;;;;;;18.40;100.00;99029.97;5079851;28;20421;-76
2021/07/02 09:20:40;;;;;;;;;;;;;;;19.26;100.00;99030.91;5074662;28;20006;-76
2021/07/02 09:23:37;;;;;;;;;;;;;;;20.22;100.00;99033.09;5090378;28;19913;-76
2021/07/02 09:26:32;;;;;;;;;;;;;;;20.43;100.00;99027.00;5090670;28;19916;-77
2021/07/02 09:29:15;;;;;;;;;;;;;;;20.76;100.00;99027.56;5090484;28;20445;-76
2021/07/02 09:31:56;;;;;;;;;;;;;;;20.32;100.00;99021.16;5091061;28;19912;-76
2021/07/02 09:34:46;;;;;;;;;;;;;;;20.02;100.00;99015.94;5090860;28;19912;-76
2021/07/02 09:37:27;;;;;;;;;;;;;;;20.43;100.00;99014.88;5090402;28;19986;-76
2021/07/02 09:40:19;;;;;;;;;;;;;;;20.87;100.00;99019.19;5106957;27;20325;-77
2021/07/02 09:43:09;;;;;;;;;;;;;;;21.51;100.00;99023.97;5107446;27;19946;-77
2021/07/02 09:45:53;;;;;;;;;;;;;;;22.23;100.00;99019.84;5083997;28;20323;-77
2021/07/02 09:48:28;;;;;;;;;;;;;;;22.35;100.00;99016.59;5087587;28;19924;-77
2021/07/02 09:51:02;;;;;;;;;;;;;;;22.52;100.00;99008.97;5084018;28;20021;-77
2021/07/02 09:53:32;;;;;;;;;;;;;;;21.69;100.00;99009.44;5086400;28;19928;-77
2021/07/02 09:56:01;;;;;;;;;;;;;;;21.33;100.00;99003.06;5083646;27;19929;-77
2021/07/02 09:58:29;;;;;;;;;;;;;;;20.93;100.00;99008.69;5082697;28;19925;-77
2021/07/02 10:00:59;;;;;;;;;;;;;;;21.15;100.00;99016.75;5069143;28;19966;-77
2021/07/02 10:03:27;;;;;;;;;;;;;;;20.41;100.00;99006.06;5071064;28;19924;-77
2021/07/02 10:05:58;;;;;;;;;;;;;;;19.87;100.00;99015.16;5073324;28;19925;-77
2021/07/02 10:08:26;;;;;;;;;;;;;;;19.49;100.00;99013.91;5075734;28;19928;-77
2021/07/02 10:10:55;;;;;;;;;;;;;;;19.53;100.00;99014.53;5107408;28;19925;-75
2021/07/02 10:13:26;;;;;;;;;;;;;;;19.23;100.00;99018.50;5079029;28;20018;-76
2021/07/02 10:15:54;;;;;;;;;;;;;;;19.05;100.00;99015.78;5073840;28;19924;-75
2021/07/02 10:18:21;;;;;;;;;;;;;;;19.07;100.00;99013.25;5076629;28;19963;-75
2021/07/02 10:20:48;;;;;;;;;;;;;;;19.32;100.00;99014.84;5058303;28;19933;-76
2021/07/02 10:23:16;;;;;;;;;;;;;;;18.93;100.00;99008.31;5085600;28;19925;-75
2021/07/02 10:25:46;;;;;;;;;;;;;;;18.95;100.00;99007.81;5089849;28;20028;-75
2021/07/02 10:28:15;;;;;;;;;;;;;;;19.36;100.00;99019.06;5090391;27;19924;-75
2021/07/02 10:30:43;;;;;;;;;;;;;;;19.52;100.00;99015.00;5090053;28;20380;-76
2021/07/02 10:33:10;;;;;;;;;;;;;;;20.20;100.00;99015.78;5122812;28;20433;-76
2021/07/02 10:35:43;;;;;;;;;;;;;;;20.73;100.00;99008.66;5088459;28;19931;-76
2021/07/02 10:38:12;;;;;;;;;;;;;;;20.75;100.00;99011.00;5088761;28;19969;-76
2021/07/02 10:40:42;;;;;;;;;;;;;;;20.91;100.00;99001.94;5089571;28;20398;-76
2021/07/02 10:43:17;;;;;;;;;;;;;;;20.92;100.00;99000.66;5122470;28;19928;-76
2021/07/02 10:46:03;;;;;;;;;;;;;;;19.34;100.00;99001.75;5089350;27;19932;-75
2021/07/02 10:48:48;;;;;;;;;;;;;;;19.54;100.00;98995.44;5090085;28;20025;-76
2021/07/02 10:51:48;;;;;;;;;;;;;;;19.44;100.00;98994.75;5089508;28;19987;-76
2021/07/02 10:54:20;;;;;;;;;;;;;;;19.26;100.00;98992.06;5065817;28;20363;-76
2021/07/02 10:56:53;;;;;;;;;;;;;;;19.64;100.00;98994.88;5077045;28;20271;-76
2021/07/02 10:59:20;;;;;;;;;;;;;;;19.55;100.00;98997.78;5075965;28;19935;-76
2021/07/02 11:02:09;;;;;;;;;;;;;;;19.95;100.00;99002.16;5075984;28;19924;-76
2021/07/02 11:04:46;;;;;;;;;;;;;;;19.88;100.00;98996.88;5074461;28;19925;-76
2021/07/02 11:07:13;;;;;;;;;;;;;;;19.40;100.00;99005.47;5075928;28;20023;-75
2021/07/02 11:09:49;;;;;;;;;;;;;;;19.15;100.00;99000.31;5074257;28;19936;-75
2021/07/02 11:12:17;;;;;;;;;;;;;;;19.36;100.00;99004.91;5074737;28;20014;-76
2021/07/02 11:14:51;;;;;;;;;;;;;;;19.05;100.00;99004.44;5074513;28;20419;-76
2021/07/02 11:17:44;;;;;;;;;;;;;;;19.39;100.00;99003.94;5075784;28;19993;-76
2021/07/02 11:20:17;;;;;;;;;;;;;;;19.82;100.00;99001.66;5075474;28;19924;-76
2021/07/02 11:22:53;;;;;;;;;;;;;;;19.68;100.00;98992.66;5070127;28;19924;-76
2021/07/02 11:25:27;;;;;;;;;;;;;;;19.51;100.00;99000.03;5055743;28;19925;-76
2021/07/02 11:27:56;;;;;;;;;;;;;;;19.57;100.00;98998.09;5064092;28;19924;-76
2021/07/02 11:30:44;;;;;;;;;;;;;;;19.86;100.00;99002.25;5062483;28;19925;-76
2021/07/02 11:33:11;;;;;;;;;;;;;;;19.60;100.00;99002.81;5068329;28;19951;-76
2021/07/02 11:35:37;;;;;;;;;;;;;;;19.59;100.00;99001.25;5064868;28;19928;-76
2021/07/02 11:38:08;;;;;;;;;;;;;;;19.77;100.00;98999.50;5069260;28;19966;-76
2021/07/02 11:40:37;;;;;;;;;;;;;;;19.74;100.00;99004.09;5063609;28;19925;-76
2021/07/02 11:43:16;;;;;;;;;;;;;;;20.13;100.00;99004.84;5069323;28;20241;-76
2021/07/02 11:45:55;;;;;;;;;;;;;;;19.73;100.00;99001.75;5063628;28;19967;-76
2021/07/02 11:48:25;;;;;;;;;;;;;;;19.37;100.00;99000.03;5062661;28;20295;-76
2021/07/02 11:50:57;;;;;;;;;;;;;;;18.94;100.00;98994.94;5057666;28;19986;-76
2021/07/02 11:53:36;;;;;;;;;;;;;;;19.23;100.00;98990.19;5057963;28;19925;-75
2021/07/02 11:56:13;;;;;;;;;;;;;;;19.23;100.00;98990.19;5058920;28;19925;-75
2021/07/02 11:58:46;;;;;;;;;;;;;;;19.43;100.00;98993.19;5065386;28;19990;-75
2021/07/02 12:01:14;;;;;;;;;;;;;;;19.59;100.00;98998.41;5095967;28;20017;-75
2021/07/02 12:03:44;;;;;;;;;;;;;;;19.58;100.00;98999.66;5065910;28;19978;-75
2021/07/02 12:06:15;;;;;;;;;;;;;;;19.36;100.00;98987.91;5062150;28;20371;-75
2021/07/02 12:08:47;;;;;;;;;;;;;;;19.38;100.00;98979.72;5065712;28;19924;-75
2021/07/02 12:11:14;;;;;;;;;;;;;;;19.77;100.00;98983.28;5061891;28;19928;-75
2021/07/02 12:13:48;;;;;;;;;;;;;;;19.78;100.00;98990.50;5067371;28;19932;-75
2021/07/02 12:16:15;;;;;;;;;;;;;;;19.39;100.00;98995.44;5061616;28;20396;-75
2021/07/02 12:18:42;;;;;;;;;;;;;;;19.40;100.00;98999.81;5085407;28;20334;-75
2021/07/02 12:21:11;;;;;;;;;;;;;;;19.42;100.00;99002.97;5093750;28;19936;-75
2021/07/02 12:23:43;;;;;;;;;;;;;;;19.37;100.00;99002.84;5071642;28;19924;-75
2021/07/02 12:26:21;;;;;;;;;;;;;;;20.23;100.00;98995.75;5073052;28;19971;-75
2021/07/02 12:28:55;;;;;;;;;;;;;;;19.86;100.00;98990.94;5074187;28;19932;-75
2021/07/02 12:31:23;;;;;;;;;;;;;;;20.07;100.00;98992.59;5072798;28;20017;-75
2021/07/02 12:33:50;;;;;;;;;;;;;;;19.32;100.00;99007.16;5074028;28;19929;-75
2021/07/02 12:36:17;;;;;;;;;;;;;;;19.54;100.00;99004.75;5073873;28;19928;-75
2021/07/02 12:38:57;;;;;;;;;;;;;;;20.17;100.00;99000.53;5072989;28;19925;-75
2021/07/02 12:41:33;;;;;;;;;;;;;;;20.57;100.00;99000.66;5071280;28;19931;-77
2021/07/02 12:44:00;;;;;;;;;;;;;;;20.92;100.00;98994.97;5035733;28;20357;-76
2021/07/02 12:46:27;;;;;;;;;;;;;;;20.42;100.00;98987.78;5055450;28;20398;-76
2021/07/02 12:49:13;;;;;;;;;;;;;;;20.42;100.00;98990.59;5059346;28;20303;-76
2021/07/02 12:51:49;;;;;;;;;;;;;;;20.74;100.00;98986.72;5056609;28;19929;-76
2021/07/02 12:57:02;;;;;;;;;;;;;;;20.70;100.00;98977.63;5063280;28;19933;-76
2021/07/02 12:59:29;;;;;;;;;;;;;;;21.03;100.00;98978.91;5062047;28;19932;-76
2021/07/02 13:01:56;;;;;;;;;;;;;;;21.12;100.00;98978.00;5065094;28;19974;-76
2021/07/02 13:04:25;;;;;;;;;;;;;;;21.37;100.00;98977.28;5060346;28;19924;-76
2021/07/02 13:06:57;;;;;;;;;;;;;;;21.17;100.00;98982.97;5064552;28;19925;-76
2021/07/02 13:09:25;;;;;;;;;;;;;;;21.85;100.00;98971.88;5059891;28;19925;-77
2021/07/02 13:12:08;;;;;;;;;;;;;;;22.34;100.00;98974.41;5064063;28;19935;-77
2021/07/02 13:14:37;;;;;;;;;;;;;;;22.45;100.00;98977.31;5092176;28;19932;-76
2021/07/02 13:17:05;;;;;;;;;;;;;;;21.59;100.00;98977.53;5065692;28;19925;-75
2021/07/02 13:19:33;;;;;;;;;;;;;;;21.78;100.00;98967.41;5058182;28;19929;-76
2021/07/02 13:22:10;;;;;;;;;;;;;;;22.27;100.00;98963.47;5064292;28;19935;-76
2021/07/02 13:24:39;;;;;;;;;;;;;;;21.35;100.00;98968.47;5073266;28;19931;-75
2021/07/02 13:27:07;;;;;;;;;;;;;;;21.34;100.00;98962.00;5073131;28;20030;-75
2021/07/02 13:29:40;;;;;;;;;;;;;;;20.69;100.00;98967.56;5088752;28;19928;-75
2021/07/02 13:32:14;;;;;;;;;;;;;;;20.60;100.00;98964.84;5088957;28;20271;-75
2021/07/02 13:34:42;;;;;;;;;;;;;;;20.66;100.00;98962.88;5073175;28;19958;-75
2021/07/02 13:37:09;;;;;;;;;;;;;;;20.43;100.00;98960.97;5072069;28;19932;-75
2021/07/02 13:39:44;;;;;;;;;;;;;;;20.49;100.00;98965.44;5059909;28;19928;-75
2021/07/02 13:42:22;;;;;;;;;;;;;;;19.69;100.00;98963.03;5105701;28;20391;-76